createdAt,value
2023-04-02T00:12:56.205Z,2.19
2023-04-02T00:42:59.078Z,2.17
2023-04-02T01:13:02.470Z,2.14
2023-04-02T01:43:05.431Z,2.05
2023-04-02T02:13:08.408Z,2.04
2023-04-02T02:43:11.844Z,2.00
2023-04-02T03:13:16.243Z,2.01
2023-04-02T03:43:19.828Z,1.74
2023-04-02T04:13:23.008Z,1.67
2023-04-02T04:43:26.281Z,1.66
2023-04-02T05:13:30.075Z,1.75
2023-04-02T05:43:33.835Z,1.76
2023-04-02T06:13:37.200Z,1.78
2023-04-02T06:43:40.587Z,1.84
2023-04-02T07:13:43.505Z,2.01
2023-04-02T07:43:46.768Z,2.44
2023-04-02T08:13:50.199Z,2.62
2023-04-02T08:43:53.755Z,2.92
2023-04-02T09:13:57.571Z,3.26
2023-04-02T09:44:00.953Z,3.94
2023-04-02T10:14:04.414Z,4.18
2023-04-02T10:44:18.873Z,5.09
2023-04-02T11:14:23.606Z,4.72
2023-04-02T11:44:26.833Z,4.53
2023-04-02T12:14:30.122Z,4.38
2023-04-02T12:44:33.427Z,4.87
2023-04-02T13:14:36.398Z,5.08
2023-04-02T13:44:39.645Z,5.24
2023-04-02T14:14:43.695Z,5.08
2023-04-02T14:44:46.492Z,5.32
2023-04-02T15:14:50.711Z,5.30
2023-04-02T15:44:53.668Z,5.64
2023-04-02T16:14:57.929Z,5.27
2023-04-02T16:45:00.778Z,4.75
2023-04-02T17:15:09.332Z,4.09
2023-04-02T17:45:17.212Z,3.36
2023-04-02T18:15:21.663Z,2.60
2023-04-02T18:45:24.537Z,2.10
2023-04-02T19:15:28.259Z,1.69
2023-04-02T19:45:31.151Z,1.12
2023-04-02T20:15:34.535Z,0.56
2023-04-02T20:45:38.177Z,0.05
2023-04-02T21:15:41.189Z,-0.22
2023-04-02T21:45:44.160Z,-0.60
2023-04-02T22:15:47.582Z,-0.83
2023-04-02T22:45:50.418Z,-1.09
2023-04-02T23:15:53.648Z,-1.32
2023-04-02T23:45:57.258Z,-1.48
